Time;durP1;ratioP1;P1;durP2;ratioP2;P2;SDS_P1;SDS_P2;PMS_P1;PMS_P2;Temp;Humidity;BMP_temperature;BMP_pressure;BME280_temperature;BME280_humidity;BME280_pressure;Samples;Min_cycle;Max_cycle;Signal;HPM_P1;HPM_P2
2021/11/13 00:00:38;;;;;;;462.40;437.17;;;9.20;99.90;;;;;;4362035;33;20167;-61
2021/11/13 00:03:04;;;;;;;464.17;439.23;;;9.20;99.90;;;;;;4361932;33;20140;-62
2021/11/13 00:05:35;;;;;;;475.60;449.50;;;9.20;99.90;;;;;;4362230;32;20227;-62
2021/11/13 00:08:03;;;;;;;452.13;427.67;;;9.30;99.90;;;;;;4361567;33;20172;-62
2021/11/13 00:10:31;;;;;;;462.50;437.70;;;9.30;99.90;;;;;;4362138;32;20199;-62
2021/11/13 00:13:01;;;;;;;440.93;417.73;;;9.40;99.90;;;;;;4361410;33;20187;-62
2021/11/13 00:15:29;;;;;;;450.77;427.23;;;9.30;99.90;;;;;;4361721;32;20166;-62
2021/11/13 00:17:56;;;;;;;438.87;414.50;;;9.30;99.90;;;;;;4361897;32;20232;-62
2021/11/13 00:20:26;;;;;;;448.70;424.87;;;9.30;99.90;;;;;;4363348;32;20266;-64
2021/11/13 00:22:58;;;;;;;445.37;421.40;;;9.30;99.90;;;;;;4362257;32;20214;-63
2021/11/13 00:25:25;;;;;;;450.63;426.93;;;9.30;99.90;;;;;;4361608;33;20164;-62
2021/11/13 00:27:54;;;;;;;448.60;424.87;;;9.30;99.90;;;;;;4363114;32;20584;-62
2021/11/13 00:30:21;;;;;;;442.93;419.37;;;9.30;99.90;;;;;;4360175;33;20179;-62
2021/11/13 00:32:50;;;;;;;451.27;426.50;;;9.30;99.90;;;;;;4359695;33;20244;-62
2021/11/13 00:35:17;;;;;;;460.67;436.13;;;9.30;99.90;;;;;;4361872;32;20222;-62
2021/11/13 00:37:45;;;;;;;452.03;427.37;;;9.30;99.90;;;;;;4361745;33;20141;-62
2021/11/13 00:40:16;;;;;;;463.33;438.47;;;9.30;99.90;;;;;;4362692;32;20216;-62
2021/11/13 00:42:43;;;;;;;457.80;432.23;;;9.30;99.90;;;;;;4362224;32;20625;-61
2021/11/13 00:45:15;;;;;;;460.23;435.27;;;9.30;99.90;;;;;;4361313;32;20649;-63
2021/11/13 00:47:42;;;;;;;461.53;437.37;;;9.30;99.90;;;;;;4362495;32;20185;-61
2021/11/13 00:50:13;;;;;;;475.10;449.43;;;9.30;99.90;;;;;;4362441;32;20213;-61
2021/11/13 00:52:40;;;;;;;472.43;447.53;;;9.30;99.90;;;;;;4361504;32;20228;-61
2021/11/13 00:55:08;;;;;;;450.13;426.40;;;9.30;99.90;;;;;;4361848;32;20227;-61
2021/11/13 00:57:35;;;;;;;453.83;429.33;;;9.30;99.90;;;;;;4361107;33;20220;-61
2021/11/13 01:00:03;;;;;;;465.53;440.30;;;9.40;99.90;;;;;;4361391;32;20227;-61
2021/11/13 01:02:31;;;;;;;461.77;437.93;;;9.40;99.90;;;;;;4361229;33;20172;-61
2021/11/13 01:04:58;;;;;;;460.97;436.10;;;9.30;99.90;;;;;;4360909;33;20235;-60
2021/11/13 01:07:24;;;;;;;454.50;430.47;;;9.40;99.90;;;;;;4360898;33;20160;-61
2021/11/13 01:09:52;;;;;;;465.57;441.00;;;9.40;99.90;;;;;;4359965;33;20184;-61
2021/11/13 01:12:19;;;;;;;455.73;431.67;;;9.40;99.90;;;;;;4360881;33;20202;-62
2021/11/13 01:14:46;;;;;;;466.67;441.00;;;9.40;99.90;;;;;;4360779;33;20157;-62
2021/11/13 01:17:16;;;;;;;463.00;437.97;;;9.40;99.90;;;;;;4360327;33;20216;-61
2021/11/13 01:19:46;;;;;;;460.77;435.80;;;9.40;99.90;;;;;;4362446;32;20152;-61
2021/11/13 01:22:14;;;;;;;462.77;438.03;;;9.40;99.90;;;;;;4361786;32;20181;-61
2021/11/13 01:24:41;;;;;;;466.40;440.87;;;9.40;99.90;;;;;;4360855;32;20489;-60
2021/11/13 01:27:08;;;;;;;449.63;425.43;;;9.40;99.90;;;;;;4360266;33;20167;-61
2021/11/13 01:29:35;;;;;;;444.87;420.97;;;9.40;99.90;;;;;;4360410;33;20306;-61
2021/11/13 01:32:04;;;;;;;458.50;434.10;;;9.50;99.90;;;;;;4360773;32;20171;-63
2021/11/13 01:34:31;;;;;;;459.33;435.50;;;9.50;99.90;;;;;;4361277;32;20228;-63
2021/11/13 01:36:59;;;;;;;449.40;425.73;;;9.50;99.90;;;;;;4361236;32;20152;-61
2021/11/13 01:39:26;;;;;;;463.33;438.17;;;9.50;99.90;;;;;;4360258;32;20146;-63
2021/11/13 01:41:56;;;;;;;453.60;429.87;;;9.50;99.90;;;;;;4360493;33;20489;-62
2021/11/13 01:44:22;;;;;;;466.90;442.40;;;9.60;99.90;;;;;;4360807;32;20538;-61
2021/11/13 01:46:49;;;;;;;468.93;443.77;;;9.60;99.90;;;;;;4360897;33;20243;-60
2021/11/13 01:49:16;;;;;;;465.57;440.77;;;9.60;99.90;;;;;;4361305;32;20191;-63
2021/11/13 01:51:45;;;;;;;460.67;435.87;;;9.60;99.90;;;;;;4361000;33;20163;-61
2021/11/13 01:54:13;;;;;;;475.43;449.90;;;9.60;99.90;;;;;;4362516;32;20236;-61
2021/11/13 01:56:40;;;;;;;473.87;448.93;;;9.60;99.90;;;;;;4360834;33;20173;-63
2021/11/13 01:59:09;;;;;;;480.43;455.03;;;9.60;99.90;;;;;;4360289;32;20143;-61
2021/11/13 02:01:37;;;;;;;469.73;443.97;;;9.70;99.90;;;;;;4360638;33;20145;-61
2021/11/13 02:04:06;;;;;;;465.30;440.47;;;9.70;99.90;;;;;;4360597;32;20216;-63
2021/11/13 02:06:34;;;;;;;458.20;433.93;;;9.70;99.90;;;;;;4360633;33;20161;-60
2021/11/13 02:09:01;;;;;;;481.10;455.20;;;9.70;99.90;;;;;;4362191;32;20146;-62
2021/11/13 02:11:30;;;;;;;483.87;457.67;;;9.80;99.90;;;;;;4360566;33;20186;-62
2021/11/13 02:13:57;;;;;;;481.53;455.60;;;9.80;99.90;;;;;;4361779;32;20215;-61
2021/11/13 02:16:24;;;;;;;467.23;442.50;;;9.80;99.90;;;;;;4360453;33;20184;-61
2021/11/13 02:18:51;;;;;;;473.07;448.37;;;9.80;99.90;;;;;;4360191;33;20574;-60
2021/11/13 02:21:20;;;;;;;480.07;455.10;;;9.80;99.90;;;;;;4362049;32;20472;-63
2021/11/13 02:23:47;;;;;;;486.83;460.87;;;9.80;99.90;;;;;;4361383;32;20187;-63
2021/11/13 02:26:14;;;;;;;484.37;457.20;;;9.80;99.90;;;;;;4359617;33;20229;-61
2021/11/13 02:28:41;;;;;;;498.03;471.87;;;9.90;99.90;;;;;;4360119;33;20169;-60
2021/11/13 02:31:13;;;;;;;473.13;447.90;;;9.90;99.90;;;;;;4360207;33;20156;-61
2021/11/13 02:33:40;;;;;;;487.63;460.80;;;9.90;99.90;;;;;;4360722;32;20605;-60
2021/11/13 02:36:09;;;;;;;464.77;440.37;;;9.90;99.90;;;;;;4359512;33;20228;-60
2021/11/13 02:38:40;;;;;;;483.23;457.17;;;9.90;99.90;;;;;;4359571;33;20173;-60
2021/11/13 02:41:10;;;;;;;505.50;478.60;;;9.90;99.90;;;;;;4359304;33;20195;-60
2021/11/13 02:43:38;;;;;;;484.87;459.33;;;9.90;99.90;;;;;;4358089;33;20191;-60
2021/11/13 02:46:10;;;;;;;484.20;458.20;;;9.90;99.90;;;;;;4358489;33;20171;-61
2021/11/13 02:48:39;;;;;;;503.47;477.40;;;10.00;99.90;;;;;;4359652;33;20138;-60
2021/11/13 02:51:07;;;;;;;507.70;480.33;;;10.00;99.90;;;;;;4359316;33;20183;-60
2021/11/13 02:53:34;;;;;;;479.20;453.83;;;10.00;99.90;;;;;;4359784;33;20141;-60
2021/11/13 02:56:05;;;;;;;481.67;454.87;;;10.00;99.90;;;;;;4359173;33;20175;-60
2021/11/13 02:58:33;;;;;;;501.20;473.73;;;10.00;99.90;;;;;;4360918;33;20159;-60
2021/11/13 03:01:04;;;;;;;494.43;467.10;;;10.00;99.90;;;;;;4358903;33;20524;-60
2021/11/13 03:03:31;;;;;;;497.70;469.90;;;10.00;99.90;;;;;;4359506;33;20195;-60
2021/11/13 03:05:59;;;;;;;505.93;477.40;;;10.00;99.90;;;;;;4359033;33;20176;-62
2021/11/13 03:08:28;;;;;;;498.03;471.27;;;10.10;99.90;;;;;;4359692;33;20223;-60
2021/11/13 03:11:00;;;;;;;502.40;475.20;;;10.10;99.90;;;;;;4359458;32;20523;-60
2021/11/13 03:13:30;;;;;;;491.27;464.03;;;10.10;99.90;;;;;;4364247;32;20516;-60
2021/11/13 03:16:01;;;;;;;488.00;461.03;;;10.10;99.90;;;;;;4361874;32;20168;-60
2021/11/13 03:18:28;;;;;;;518.07;489.83;;;10.10;99.90;;;;;;4355304;33;20164;-61
2021/11/13 03:20:55;;;;;;;491.67;464.70;;;10.10;99.90;;;;;;4362698;32;20204;-60
2021/11/13 03:23:24;;;;;;;512.13;484.13;;;10.10;99.90;;;;;;4362203;32;20534;-60
2021/11/13 03:25:54;;;;;;;504.20;476.93;;;10.10;99.90;;;;;;4363474;32;20235;-61
2021/11/13 03:28:24;;;;;;;507.07;479.50;;;10.20;99.90;;;;;;4362953;32;20199;-60
2021/11/13 03:30:53;;;;;;;509.47;481.30;;;10.10;99.90;;;;;;4363899;32;20216;-59
2021/11/13 03:33:20;;;;;;;514.87;486.77;;;10.10;99.90;;;;;;4363176;32;20652;-60
2021/11/13 03:35:47;;;;;;;514.80;486.90;;;10.20;99.90;;;;;;4364157;32;20613;-60
2021/11/13 03:38:16;;;;;;;500.67;473.10;;;10.10;99.90;;;;;;4362107;33;20219;-60
2021/11/13 03:40:46;;;;;;;518.37;490.17;;;10.20;99.90;;;;;;4361833;32;20170;-62
2021/11/13 03:43:14;;;;;;;516.07;487.80;;;10.20;99.90;;;;;;4361478;32;20259;-61
2021/11/13 03:45:41;;;;;;;530.63;501.63;;;10.10;99.90;;;;;;4362871;32;20186;-60
2021/11/13 03:48:10;;;;;;;503.53;475.10;;;10.20;99.90;;;;;;4361182;33;20232;-60
2021/11/13 03:50:37;;;;;;;497.53;470.17;;;10.30;99.90;;;;;;4362476;32;20262;-60
2021/11/13 03:53:05;;;;;;;516.37;487.50;;;10.20;99.90;;;;;;4363187;32;20233;-60
2021/11/13 03:55:32;;;;;;;527.73;498.50;;;10.20;99.90;;;;;;4363615;32;20154;-61
2021/11/13 03:58:01;;;;;;;525.07;495.07;;;10.20;99.90;;;;;;4361278;32;20176;-60
2021/11/13 04:00:30;;;;;;;506.87;478.00;;;10.20;99.90;;;;;;4361978;33;20163;-60
2021/11/13 04:02:57;;;;;;;525.20;496.33;;;10.20;99.90;;;;;;4361329;33;20208;-62
2021/11/13 04:05:25;;;;;;;513.93;486.13;;;10.20;99.90;;;;;;4362975;32;20188;-62
2021/11/13 04:07:52;;;;;;;518.67;490.03;;;10.40;99.90;;;;;;4361124;33;20153;-62
2021/11/13 04:10:20;;;;;;;498.97;470.40;;;10.40;99.90;;;;;;4363370;32;20153;-62
2021/11/13 04:12:49;;;;;;;515.23;485.27;;;10.30;99.90;;;;;;4361684;32;20619;-62
2021/11/13 04:15:16;;;;;;;513.37;484.87;;;10.30;99.90;;;;;;4362165;32;20228;-61
2021/11/13 04:17:48;;;;;;;552.57;521.70;;;10.30;99.90;;;;;;4360868;33;20222;-61
2021/11/13 04:20:18;;;;;;;533.57;503.93;;;10.40;99.90;;;;;;4362997;32;20159;-61
2021/11/13 04:22:47;;;;;;;539.93;509.07;;;10.30;99.90;;;;;;4360731;32;20611;-61
2021/11/13 04:25:14;;;;;;;533.07;502.90;;;10.30;99.90;;;;;;4361219;32;20191;-62
2021/11/13 04:27:41;;;;;;;552.97;522.77;;;10.30;99.90;;;;;;4361932;32;20657;-61
2021/11/13 04:30:12;;;;;;;531.17;501.03;;;10.30;99.90;;;;;;4362295;32;20154;-61
2021/11/13 04:32:39;;;;;;;555.40;524.40;;;10.40;99.90;;;;;;4362303;32;20194;-61
2021/11/13 04:35:18;;;;;;;556.00;525.10;;;10.40;99.90;;;;;;4362457;32;20584;-61
2021/11/13 04:37:51;;;;;;;556.47;525.53;;;10.40;99.90;;;;;;4361327;32;20216;-61
2021/11/13 04:40:19;;;;;;;541.83;511.07;;;10.40;99.90;;;;;;4361695;32;20206;-63
2021/11/13 04:42:46;;;;;;;549.63;518.63;;;10.40;99.90;;;;;;4362277;32;20172;-63
2021/11/13 04:45:13;;;;;;;527.43;498.40;;;10.30;99.90;;;;;;4361357;33;20191;-62
2021/11/13 04:47:43;;;;;;;545.37;515.20;;;10.40;99.90;;;;;;4361254;32;20522;-63
2021/11/13 04:50:13;;;;;;;538.83;507.67;;;10.40;99.90;;;;;;4361231;33;20153;-62
2021/11/13 04:52:41;;;;;;;515.97;487.10;;;10.40;99.90;;;;;;4362129;32;20164;-62
2021/11/13 04:55:12;;;;;;;544.67;515.20;;;10.40;99.90;;;;;;4361222;33;20255;-62
2021/11/13 04:57:39;;;;;;;555.87;525.47;;;10.40;99.90;;;;;;4360630;32;20264;-62
2021/11/13 05:00:12;;;;;;;547.03;516.77;;;10.40;99.90;;;;;;4362312;32;20145;-63
2021/11/13 05:02:39;;;;;;;532.37;503.37;;;10.40;99.90;;;;;;4360928;32;20212;-62
2021/11/13 05:05:07;;;;;;;544.67;515.20;;;10.40;99.90;;;;;;4360730;33;20200;-63
2021/11/13 05:07:34;;;;;;;547.67;517.87;;;10.40;99.90;;;;;;4362293;32;20155;-62
2021/11/13 05:10:01;;;;;;;562.37;532.57;;;10.50;99.90;;;;;;4362234;32;20521;-63
2021/11/13 05:12:30;;;;;;;546.83;516.93;;;10.50;99.90;;;;;;4360923;32;20157;-62
2021/11/13 05:14:57;;;;;;;531.43;502.73;;;10.50;99.90;;;;;;4360226;32;20420;-64
2021/11/13 05:17:23;;;;;;;529.73;501.10;;;10.50;99.90;;;;;;4360579;33;20177;-62
2021/11/13 05:19:52;;;;;;;533.53;504.90;;;10.50;99.90;;;;;;4360376;32;20236;-63
2021/11/13 05:22:19;;;;;;;559.23;529.30;;;10.50;99.90;;;;;;4360791;33;20143;-64
2021/11/13 05:24:46;;;;;;;553.33;523.80;;;10.50;99.90;;;;;;4359952;33;20235;-62
2021/11/13 05:27:13;;;;;;;547.07;518.57;;;10.60;99.90;;;;;;4360691;33;20187;-63
2021/11/13 05:29:41;;;;;;;560.73;530.70;;;10.60;99.90;;;;;;4361327;32;20152;-63
2021/11/13 05:32:08;;;;;;;555.87;526.63;;;10.60;99.90;;;;;;4360745;32;20152;-62
2021/11/13 05:34:35;;;;;;;542.63;513.70;;;10.60;99.90;;;;;;4359400;32;20164;-62
2021/11/13 05:37:03;;;;;;;538.83;510.83;;;10.60;99.90;;;;;;4360519;33;20148;-65
2021/11/13 05:39:30;;;;;;;544.97;515.33;;;10.60;99.90;;;;;;4361390;32;20179;-62
2021/11/13 05:41:57;;;;;;;562.90;533.20;;;10.60;99.90;;;;;;4361729;32;20459;-63
2021/11/13 05:44:24;;;;;;;562.47;532.37;;;10.60;99.90;;;;;;4359665;32;20547;-63
2021/11/13 05:46:54;;;;;;;570.20;539.20;;;10.60;99.90;;;;;;4360968;32;20509;-63
2021/11/13 05:49:21;;;;;;;564.50;533.57;;;10.60;99.90;;;;;;4360396;33;20627;-62
2021/11/13 05:51:48;;;;;;;571.60;539.23;;;10.60;99.90;;;;;;4360858;33;20145;-63
2021/11/13 05:54:15;;;;;;;563.37;532.30;;;10.60;99.90;;;;;;4362308;32;20149;-62
2021/11/13 05:56:44;;;;;;;585.83;553.63;;;10.60;99.90;;;;;;4362755;32;20156;-63
2021/11/13 05:59:11;;;;;;;575.00;542.83;;;10.60;99.90;;;;;;4361093;32;20148;-63
2021/11/13 06:01:38;;;;;;;560.13;528.77;;;10.60;99.90;;;;;;4359060;33;20222;-63
2021/11/13 06:04:07;;;;;;;564.50;532.83;;;10.60;99.90;;;;;;4360480;32;20507;-63
2021/11/13 06:06:33;;;;;;;585.63;553.43;;;10.60;99.90;;;;;;4361121;32;20175;-63
2021/11/13 06:09:00;;;;;;;600.03;566.07;;;10.50;99.90;;;;;;4359758;33;20165;-63
2021/11/13 06:11:27;;;;;;;563.77;532.33;;;10.60;99.90;;;;;;4359931;33;20169;-63
2021/11/13 06:13:54;;;;;;;582.17;549.67;;;10.50;99.90;;;;;;4360697;32;20228;-63
2021/11/13 06:16:21;;;;;;;584.73;551.73;;;10.50;99.90;;;;;;4360765;32;20600;-62
2021/11/13 06:18:48;;;;;;;579.50;546.60;;;10.50;99.90;;;;;;4360930;33;20219;-63
2021/11/13 06:21:16;;;;;;;576.67;544.13;;;10.50;99.90;;;;;;4361684;32;20465;-62
2021/11/13 06:23:45;;;;;;;581.13;548.53;;;10.60;99.90;;;;;;4360913;32;20235;-62
2021/11/13 06:26:13;;;;;;;598.97;564.60;;;10.60;99.90;;;;;;4360190;33;20182;-62
2021/11/13 06:28:40;;;;;;;600.27;565.93;;;10.60;99.90;;;;;;4360855;32;20462;-62
2021/11/13 06:31:07;;;;;;;581.77;548.97;;;10.60;99.90;;;;;;4349678;32;20530;-63
2021/11/13 06:33:35;;;;;;;587.23;553.73;;;10.60;99.90;;;;;;4361057;32;20186;-62
2021/11/13 06:36:02;;;;;;;594.60;560.00;;;10.70;99.90;;;;;;4361192;32;20242;-62
2021/11/13 06:38:32;;;;;;;603.33;568.07;;;10.70;99.90;;;;;;4359610;33;20219;-63
2021/11/13 06:40:59;;;;;;;574.30;541.07;;;10.60;99.90;;;;;;4359680;32;20477;-63
2021/11/13 06:43:26;;;;;;;588.23;554.93;;;10.60;99.90;;;;;;4359921;32;20172;-63
2021/11/13 06:45:55;;;;;;;606.83;572.33;;;10.60;99.90;;;;;;4359312;32;20148;-63
2021/11/13 06:48:22;;;;;;;619.43;583.90;;;10.60;99.90;;;;;;4346093;33;20178;-62
2021/11/13 06:50:52;;;;;;;599.93;564.90;;;10.60;99.90;;;;;;4359870;33;20573;-63
2021/11/13 06:53:21;;;;;;;605.87;570.93;;;10.60;99.90;;;;;;4359199;33;20218;-63
2021/11/13 06:55:53;;;;;;;622.23;586.53;;;10.60;99.90;;;;;;4359056;33;20216;-63
2021/11/13 06:58:20;;;;;;;601.03;566.80;;;10.60;99.90;;;;;;4351145;33;20211;-62
2021/11/13 07:00:47;;;;;;;597.53;563.73;;;10.60;99.90;;;;;;4355682;33;20673;-63
2021/11/13 07:03:14;;;;;;;602.43;567.70;;;10.70;99.90;;;;;;4356865;33;20164;-63
2021/11/13 07:05:42;;;;;;;590.33;557.00;;;10.70;99.90;;;;;;4351595;33;20233;-62
2021/11/13 07:08:13;;;;;;;604.20;569.87;;;10.70;99.90;;;;;;4350756;33;20190;-62
2021/11/13 07:10:42;;;;;;;597.20;563.20;;;10.70;99.90;;;;;;4351299;33;20168;-62
2021/11/13 07:13:16;;;;;;;610.03;574.70;;;10.70;99.90;;;;;;4353524;33;20148;-62
2021/11/13 07:15:45;;;;;;;604.53;569.97;;;10.80;99.90;;;;;;4350982;33;20202;-62
2021/11/13 07:18:12;;;;;;;608.13;573.27;;;10.70;99.90;;;;;;4350727;33;20152;-61
2021/11/13 07:20:39;;;;;;;619.30;583.67;;;10.70;99.90;;;;;;4354107;33;20639;-62
2021/11/13 07:23:08;;;;;;;603.90;569.57;;;10.80;99.90;;;;;;4349370;33;20187;-62
2021/11/13 07:25:37;;;;;;;591.30;557.40;;;10.70;99.90;;;;;;4349828;33;20141;-62
2021/11/13 07:28:07;;;;;;;604.07;569.00;;;10.80;99.90;;;;;;4353285;33;20149;-63
2021/11/13 07:30:40;;;;;;;614.87;579.83;;;10.80;99.90;;;;;;4353986;33;20199;-62
2021/11/13 07:33:08;;;;;;;605.10;570.33;;;10.80;99.90;;;;;;4356692;33;20145;-63
2021/11/13 07:35:42;;;;;;;604.43;570.50;;;10.90;99.90;;;;;;4358387;33;20149;-61
2021/11/13 07:38:09;;;;;;;609.73;574.73;;;10.90;99.90;;;;;;4355783;33;20148;-63
2021/11/13 07:40:38;;;;;;;625.57;589.27;;;10.90;99.90;;;;;;4353343;33;20282;-62
2021/11/13 07:43:05;;;;;;;622.63;586.63;;;10.90;99.90;;;;;;4352255;33;20165;-63
2021/11/13 07:45:32;;;;;;;610.73;576.20;;;10.90;99.90;;;;;;4351888;33;22458;-64
2021/11/13 07:48:04;;;;;;;592.43;559.10;;;10.90;99.90;;;;;;4351880;33;20157;-63
2021/11/13 07:50:32;;;;;;;612.33;577.53;;;10.90;99.90;;;;;;4352273;33;20153;-63
2021/11/13 07:52:59;;;;;;;602.10;568.00;;;10.90;99.90;;;;;;4353992;32;20233;-63
2021/11/13 07:55:25;;;;;;;636.67;600.97;;;10.90;99.90;;;;;;4354949;33;20172;-63
2021/11/13 07:57:54;;;;;;;624.33;587.83;;;10.90;99.90;;;;;;4352786;33;20148;-63
2021/11/13 08:00:22;;;;;;;638.37;602.23;;;11.00;99.90;;;;;;4354065;33;20192;-64
2021/11/13 08:02:49;;;;;;;631.10;594.67;;;11.00;99.90;;;;;;4357452;33;20188;-64
2021/11/13 08:05:18;;;;;;;624.23;589.03;;;11.00;99.90;;;;;;4357270;33;20183;-63
2021/11/13 08:07:46;;;;;;;616.10;581.63;;;11.00;99.90;;;;;;4354532;33;20151;-62
2021/11/13 08:10:14;;;;;;;628.03;592.43;;;11.00;99.90;;;;;;4355582;33;20174;-62
2021/11/13 08:12:41;;;;;;;644.03;606.93;;;11.10;99.90;;;;;;4354535;33;20173;-62
2021/11/13 08:15:10;;;;;;;637.73;601.37;;;11.10;99.90;;;;;;4356461;32;20238;-62
2021/11/13 08:17:37;;;;;;;605.23;570.87;;;11.10;99.90;;;;;;4353797;33;20247;-62
2021/11/13 08:20:07;;;;;;;659.07;621.80;;;11.10;99.90;;;;;;4361331;32;20206;-62
2021/11/13 08:22:36;;;;;;;639.63;602.47;;;11.30;99.90;;;;;;4348092;33;20141;-62
2021/11/13 08:25:04;;;;;;;648.27;611.87;;;11.40;99.90;;;;;;4347694;33;20137;-63
2021/11/13 08:27:31;;;;;;;648.00;610.80;;;11.40;99.90;;;;;;4357582;33;20210;-62
2021/11/13 08:29:58;;;;;;;645.57;608.83;;;11.40;99.90;;;;;;4352405;33;20267;-62
2021/11/13 08:32:25;;;;;;;626.27;591.63;;;11.50;99.90;;;;;;4352431;33;20162;-62
2021/11/13 08:34:52;;;;;;;633.73;598.40;;;11.50;99.90;;;;;;4355861;32;20557;-62
2021/11/13 08:37:19;;;;;;;644.50;608.37;;;11.50;99.90;;;;;;4361727;33;20597;-62
2021/11/13 08:39:47;;;;;;;624.87;590.03;;;11.60;99.90;;;;;;4361558;33;20562;-62
2021/11/13 08:42:14;;;;;;;625.33;590.27;;;11.70;99.90;;;;;;4361285;33;20173;-62
2021/11/13 08:44:44;;;;;;;630.13;594.63;;;11.70;99.90;;;;;;4360768;33;20149;-62
2021/11/13 08:47:12;;;;;;;658.30;621.00;;;11.80;99.90;;;;;;4357844;32;20557;-62
2021/11/13 08:49:42;;;;;;;633.03;597.57;;;12.20;99.90;;;;;;4360431;33;20208;-62
2021/11/13 08:52:12;;;;;;;631.33;596.00;;;12.50;99.90;;;;;;4358064;32;20250;-62
2021/11/13 08:54:39;;;;;;;638.47;602.63;;;12.50;99.90;;;;;;4362064;32;20165;-62
2021/11/13 08:57:09;;;;;;;653.77;616.73;;;12.60;99.90;;;;;;4359204;32;20172;-61
2021/11/13 08:59:36;;;;;;;677.63;638.53;;;12.60;99.90;;;;;;4362196;32;20509;-63
2021/11/13 09:02:09;;;;;;;675.93;637.77;;;12.70;99.90;;;;;;4357393;32;20171;-62
2021/11/13 09:04:36;;;;;;;665.87;628.17;;;12.80;99.90;;;;;;4356967;32;20232;-62
2021/11/13 09:07:04;;;;;;;675.83;637.60;;;12.70;99.90;;;;;;4353285;32;20149;-62
2021/11/13 09:09:34;;;;;;;676.20;638.33;;;12.50;99.90;;;;;;4351607;32;20196;-62
2021/11/13 09:12:03;;;;;;;679.40;640.63;;;12.40;99.90;;;;;;4356658;33;20212;-63
2021/11/13 09:14:32;;;;;;;675.97;637.70;;;12.40;99.90;;;;;;4361648;32;20160;-63
2021/11/13 09:16:59;;;;;;;677.93;639.30;;;12.50;99.90;;;;;;4360322;33;20157;-63
2021/11/13 09:19:26;;;;;;;663.80;625.60;;;12.60;99.90;;;;;;4362263;32;20656;-62
2021/11/13 09:21:53;;;;;;;685.03;646.23;;;12.70;99.90;;;;;;4360271;32;20251;-62
2021/11/13 09:24:21;;;;;;;663.57;626.03;;;12.60;99.90;;;;;;4361939;32;20597;-63
2021/11/13 09:26:51;;;;;;;672.10;634.10;;;12.60;99.90;;;;;;4360593;32;20221;-62
2021/11/13 09:29:18;;;;;;;656.90;620.13;;;12.80;99.90;;;;;;4360466;33;20183;-63
2021/11/13 09:31:46;;;;;;;686.57;647.07;;;13.00;99.90;;;;;;4352190;32;20561;-63
2021/11/13 09:34:15;;;;;;;667.10;629.80;;;13.20;99.90;;;;;;4360669;32;20169;-63
2021/11/13 09:36:43;;;;;;;675.70;637.70;;;13.20;99.90;;;;;;4358965;32;20149;-62
2021/11/13 09:39:10;;;;;;;656.90;619.80;;;13.30;99.90;;;;;;4355754;33;20224;-62
2021/11/13 09:41:37;;;;;;;674.10;635.77;;;13.60;99.90;;;;;;4355406;32;20161;-62
2021/11/13 09:44:04;;;;;;;647.00;611.13;;;13.90;99.90;;;;;;4352900;33;20192;-62
2021/11/13 09:46:31;;;;;;;662.23;625.10;;;14.00;99.90;;;;;;4355524;32;20611;-62
2021/11/13 09:49:00;;;;;;;660.53;624.00;;;13.90;99.90;;;;;;4352430;33;20172;-63
2021/11/13 09:51:28;;;;;;;660.70;624.07;;;13.80;99.90;;;;;;4354906;32;20168;-62
2021/11/13 09:53:56;;;;;;;650.80;615.20;;;13.70;99.90;;;;;;4351616;32;20167;-62
2021/11/13 09:56:23;;;;;;;639.43;605.03;;;13.50;99.90;;;;;;4347310;32;20176;-62
2021/11/13 09:58:50;;;;;;;656.60;620.93;;;13.50;99.90;;;;;;4356407;32;20152;-62
2021/11/13 10:01:18;;;;;;;656.70;620.50;;;13.50;99.90;;;;;;4360061;33;20534;-62
2021/11/13 10:03:47;;;;;;;638.90;603.60;;;13.40;99.90;;;;;;4361787;32;20153;-63
2021/11/13 10:06:15;;;;;;;623.50;589.90;;;13.30;99.90;;;;;;4361363;32;20202;-62
2021/11/13 10:08:43;;;;;;;632.30;598.23;;;13.20;99.90;;;;;;4355809;32;20164;-62
2021/11/13 10:11:14;;;;;;;648.70;613.67;;;13.20;99.90;;;;;;4361635;32;20576;-62
2021/11/13 10:13:42;;;;;;;654.33;618.17;;;13.30;99.90;;;;;;4360099;32;20149;-62
2021/11/13 10:16:14;;;;;;;655.50;619.60;;;13.30;99.90;;;;;;4358959;33;20198;-63
2021/11/13 10:18:46;;;;;;;680.73;644.00;;;13.30;99.90;;;;;;4358768;32;20153;-63
2021/11/13 10:21:17;;;;;;;662.90;626.30;;;13.30;99.90;;;;;;4359299;32;20148;-62
2021/11/13 10:23:48;;;;;;;665.80;629.43;;;13.40;99.90;;;;;;4348306;33;20168;-62
2021/11/13 10:26:20;;;;;;;633.10;598.93;;;13.60;99.90;;;;;;4360068;32;20168;-63
2021/11/13 10:28:51;;;;;;;647.97;612.50;;;13.80;99.90;;;;;;4361242;32;20186;-62
2021/11/13 10:31:20;;;;;;;633.17;599.20;;;13.90;99.90;;;;;;4358364;33;20155;-62
2021/11/13 10:33:48;;;;;;;659.57;623.53;;;13.90;99.90;;;;;;4358433;33;20164;-63
2021/11/13 10:36:21;;;;;;;672.13;635.77;;;13.80;99.90;;;;;;4358126;33;20156;-63
2021/11/13 10:38:49;;;;;;;635.80;601.73;;;13.80;99.90;;;;;;4358944;33;20179;-63
2021/11/13 10:41:16;;;;;;;650.60;616.43;;;13.70;99.90;;;;;;4358966;32;20160;-63
2021/11/13 10:43:47;;;;;;;626.80;593.43;;;13.60;99.90;;;;;;4358368;33;20176;-63
2021/11/13 10:46:19;;;;;;;632.17;598.07;;;13.50;99.90;;;;;;4354581;32;20158;-64
2021/11/13 10:48:48;;;;;;;629.43;595.27;;;13.40;99.90;;;;;;4352035;33;20198;-63
2021/11/13 10:51:19;;;;;;;645.57;610.67;;;13.30;99.90;;;;;;4350947;32;20179;-64
2021/11/13 10:53:48;;;;;;;645.07;609.90;;;13.40;99.90;;;;;;4354239;32;20185;-63
2021/11/13 10:56:16;;;;;;;640.70;605.70;;;13.30;99.90;;;;;;4353792;33;20182;-63
2021/11/13 10:58:51;;;;;;;640.73;606.00;;;13.30;99.90;;;;;;4355709;33;20180;-63
2021/11/13 11:01:32;;;;;;;651.87;616.40;;;13.20;99.90;;;;;;4356671;33;20246;-63
2021/11/13 11:04:00;;;;;;;647.40;611.83;;;13.10;99.90;;;;;;4355950;33;20171;-64
2021/11/13 11:06:37;;;;;;;619.00;585.43;;;13.00;99.90;;;;;;4344378;33;20225;-63
2021/11/13 11:09:14;;;;;;;641.70;606.70;;;13.10;99.90;;;;;;4344212;33;20147;-63
2021/11/13 11:11:43;;;;;;;639.93;605.43;;;13.10;99.90;;;;;;4344136;33;20569;-63
2021/11/13 11:14:13;;;;;;;646.33;611.27;;;13.20;99.90;;;;;;4355808;33;20180;-63
2021/11/13 11:16:41;;;;;;;631.80;598.40;;;13.30;99.90;;;;;;4356270;33;20180;-63
2021/11/13 11:19:10;;;;;;;644.17;609.20;;;13.20;99.90;;;;;;4358605;33;20162;-64
2021/11/13 11:21:44;;;;;;;647.30;611.93;;;13.30;99.90;;;;;;4357502;33;20157;-63
2021/11/13 11:24:14;;;;;;;624.53;590.93;;;13.30;99.90;;;;;;4358949;33;20271;-63
2021/11/13 11:26:42;;;;;;;650.07;615.07;;;13.30;99.90;;;;;;4362742;32;20554;-63
2021/11/13 11:29:10;;;;;;;644.80;609.93;;;13.30;99.90;;;;;;4355565;33;20148;-63
2021/11/13 11:31:46;;;;;;;639.10;604.17;;;13.10;99.90;;;;;;4357430;32;20196;-63
2021/11/13 11:34:24;;;;;;;639.30;604.67;;;13.00;99.90;;;;;;4361670;32;20163;-64
2021/11/13 11:36:54;;;;;;;627.73;594.00;;;12.80;99.90;;;;;;4360559;32;20188;-64
2021/11/13 11:39:21;;;;;;;648.27;612.80;;;12.60;99.90;;;;;;4356061;33;20212;-64
2021/11/13 11:41:48;;;;;;;645.07;609.90;;;12.50;99.90;;;;;;4358215;32;20179;-63
2021/11/13 11:44:16;;;;;;;644.80;610.03;;;12.30;99.90;;;;;;4349603;32;20234;-63
2021/11/13 11:46:44;;;;;;;655.40;620.03;;;12.30;99.90;;;;;;4359086;33;20204;-63
2021/11/13 11:49:12;;;;;;;678.40;640.73;;;12.50;99.90;;;;;;4354447;32;20192;-63
2021/11/13 11:51:39;;;;;;;683.17;644.43;;;13.00;99.90;;;;;;4357698;32;20656;-63
2021/11/13 11:54:09;;;;;;;674.37;636.47;;;13.40;99.90;;;;;;4359541;32;20521;-63
2021/11/13 11:56:37;;;;;;;677.93;640.27;;;13.80;99.90;;;;;;4351632;33;20239;-63
2021/11/13 11:59:07;;;;;;;655.33;619.00;;;13.90;99.90;;;;;;4355827;32;20165;-63
2021/11/13 12:01:37;;;;;;;641.83;606.70;;;13.80;99.90;;;;;;4354294;33;20355;-64
2021/11/13 12:04:15;;;;;;;632.43;598.23;;;13.80;99.90;;;;;;4353635;33;20168;-62
2021/11/13 12:06:48;;;;;;;633.93;599.37;;;13.70;99.90;;;;;;4351767;32;20283;-63
2021/11/13 12:09:16;;;;;;;651.43;616.70;;;13.80;99.90;;;;;;4354185;32;20276;-63
2021/11/13 12:11:44;;;;;;;646.90;611.47;;;13.80;99.90;;;;;;4350771;33;20161;-63
2021/11/13 12:14:32;;;;;;;641.50;606.87;;;13.80;99.90;;;;;;4352160;33;20287;-64
2021/11/13 12:17:34;;;;;;;622.50;589.50;;;13.80;99.90;;;;;;4349730;32;20492;-63